createdAt,value
2018-06-24T00:00:44.843Z,101653.97
2018-06-24T00:03:13.302Z,101656.05
2018-06-24T00:05:41.696Z,101652.19
2018-06-24T00:08:10.109Z,101651.27
2018-06-24T00:10:38.620Z,101644.35
2018-06-24T00:13:07.085Z,101651.63
2018-06-24T00:15:35.517Z,101649.90
2018-06-24T00:18:04.030Z,101649.80
2018-06-24T00:20:32.451Z,101644.64
2018-06-24T00:23:01.257Z,101651.41
2018-06-24T00:25:29.672Z,101651.41
2018-06-24T00:27:58.436Z,101645.33
2018-06-24T00:30:27.141Z,101641.03
2018-06-24T00:32:55.610Z,101639.73
2018-06-24T00:35:24.068Z,101639.63
2018-06-24T00:37:54.432Z,101639.63
2018-06-24T00:40:22.812Z,101639.63
2018-06-24T00:42:51.221Z,101632.41
2018-06-24T00:45:19.615Z,101629.03
2018-06-24T00:47:48.163Z,101629.48
2018-06-24T00:50:16.580Z,101626.93
2018-06-24T00:52:44.981Z,101628.62
2018-06-24T00:55:13.397Z,101622.17
2018-06-24T00:57:41.833Z,101622.14
2018-06-24T01:00:13.009Z,101616.15
2018-06-24T01:02:41.595Z,101608.00
2018-06-24T01:05:10.903Z,101606.77
2018-06-24T01:07:39.496Z,101599.56
2018-06-24T01:10:07.998Z,101602.64
2018-06-24T01:12:36.427Z,101604.41
2018-06-24T01:15:04.963Z,101607.01
2018-06-24T01:17:34.414Z,101596.75
2018-06-24T01:20:03.863Z,101582.16
2018-06-24T01:22:32.273Z,101574.88
2018-06-24T01:25:01.132Z,101574.45
2018-06-24T01:27:30.218Z,101573.62
2018-06-24T01:29:58.657Z,101567.18
2018-06-24T01:32:27.430Z,101565.03
2018-06-24T01:34:56.900Z,101567.61
2018-06-24T01:37:25.294Z,101571.05
2018-06-24T01:39:53.696Z,101570.17
2018-06-24T01:42:22.151Z,101570.18
2018-06-24T01:44:50.886Z,101568.43
2018-06-24T01:47:19.248Z,101567.46
2018-06-24T01:49:48.734Z,101567.34
2018-06-24T01:52:17.176Z,101563.02
2018-06-24T01:54:45.616Z,101565.59
2018-06-24T01:57:14.544Z,101575.00
2018-06-24T01:59:42.964Z,101573.67
2018-06-24T02:02:11.393Z,101562.94
2018-06-24T02:04:39.828Z,101561.25
2018-06-24T02:07:08.240Z,101558.72
2018-06-24T02:09:36.654Z,101561.76
2018-06-24T02:12:05.852Z,101563.56
2018-06-24T02:14:34.261Z,101558.42
2018-06-24T02:17:02.669Z,101555.66
2018-06-24T02:19:31.072Z,101550.84
2018-06-24T02:21:59.808Z,101560.69
2018-06-24T02:24:29.342Z,101556.20
2018-06-24T02:26:57.750Z,101551.45
2018-06-24T02:29:26.358Z,101546.33
2018-06-24T02:31:54.844Z,101551.50
2018-06-24T02:34:23.265Z,101549.88
2018-06-24T02:36:52.435Z,101556.80
2018-06-24T02:39:21.189Z,101551.67
2018-06-24T02:41:49.833Z,101551.59
2018-06-24T02:44:18.246Z,101552.80
2018-06-24T02:46:46.691Z,101554.48
2018-06-24T02:49:15.133Z,101550.14
2018-06-24T02:51:43.520Z,101552.24
2018-06-24T02:54:11.940Z,101551.34
2018-06-24T02:56:41.522Z,101550.47
2018-06-24T02:59:10.298Z,101552.24
2018-06-24T03:01:38.933Z,101550.53
2018-06-24T03:04:07.373Z,101551.03
2018-06-24T03:06:36.085Z,101549.78
2018-06-24T03:09:08.434Z,101556.16
2018-06-24T03:11:36.861Z,101550.59
2018-06-24T03:14:05.305Z,101549.73
2018-06-24T03:16:34.048Z,101549.25
2018-06-24T03:19:02.448Z,101545.32
2018-06-24T03:21:30.880Z,101546.90
2018-06-24T03:23:59.314Z,101552.47
2018-06-24T03:26:27.715Z,101548.57
2018-06-24T03:28:56.192Z,101555.02
2018-06-24T03:31:24.650Z,101552.47
2018-06-24T03:33:53.430Z,101555.05
2018-06-24T03:36:21.832Z,101553.36
2018-06-24T03:38:50.281Z,101559.83
2018-06-24T03:41:18.861Z,101529.52
2018-06-24T03:43:47.375Z,101557.20
2018-06-24T03:46:15.791Z,101561.91
2018-06-24T03:48:44.157Z,101557.98
2018-06-24T03:51:12.544Z,101557.16
2018-06-24T03:53:40.948Z,101558.83
2018-06-24T03:56:09.348Z,101555.73
2018-06-24T03:58:37.823Z,101554.81
2018-06-24T04:01:06.417Z,101557.75
2018-06-24T04:03:34.812Z,101558.63
2018-06-24T04:06:03.243Z,101560.73
2018-06-24T04:08:31.605Z,101555.16
2018-06-24T04:11:00.012Z,101551.66
2018-06-24T04:13:28.473Z,101549.95
2018-06-24T04:16:06.724Z,101547.81
2018-06-24T04:18:48.429Z,101556.87
2018-06-24T04:21:16.889Z,101562.94
2018-06-24T04:23:45.827Z,101566.46
2018-06-24T04:26:14.247Z,101559.69
2018-06-24T04:28:42.652Z,101557.56
2018-06-24T04:31:11.797Z,101551.09
2018-06-24T04:33:40.790Z,101550.61
2018-06-24T04:36:09.239Z,101553.17
2018-06-24T04:38:37.748Z,101552.73
2018-06-24T04:41:06.215Z,101558.32
2018-06-24T04:43:34.608Z,101566.90
2018-06-24T04:46:03.057Z,101573.82
2018-06-24T04:48:31.469Z,101566.59
2018-06-24T04:51:00.735Z,101565.30
2018-06-24T04:53:29.140Z,101570.86
2018-06-24T04:55:57.604Z,101570.84
2018-06-24T04:58:26.392Z,101576.00
2018-06-24T05:00:55.762Z,101581.12
2018-06-24T05:03:24.185Z,101576.43
2018-06-24T05:05:52.708Z,101582.03
2018-06-24T05:08:21.143Z,101575.27
2018-06-24T05:10:49.580Z,101583.06
2018-06-24T05:13:18.745Z,101583.47
2018-06-24T05:15:47.135Z,101583.92
2018-06-24T05:18:15.565Z,101580.84
2018-06-24T05:20:43.951Z,101582.67
2018-06-24T05:23:12.873Z,101590.92
2018-06-24T05:25:41.314Z,101588.39
2018-06-24T05:28:09.988Z,101597.03
2018-06-24T05:30:38.371Z,101596.21
2018-06-24T05:33:06.812Z,101598.84
2018-06-24T05:35:35.236Z,101598.52
2018-06-24T05:38:03.760Z,101593.84
2018-06-24T05:40:32.240Z,101591.28
2018-06-24T05:43:00.709Z,101594.77
2018-06-24T05:45:29.060Z,101594.45
2018-06-24T05:47:57.473Z,101593.68
2018-06-24T05:50:25.860Z,101595.05
2018-06-24T05:52:54.916Z,101595.10
2018-06-24T05:55:24.109Z,101592.20
2018-06-24T05:57:52.487Z,101586.70
2018-06-24T06:00:20.912Z,101587.58
2018-06-24T06:02:49.820Z,101594.95
2018-06-24T06:05:18.195Z,101601.30
2018-06-24T06:07:46.623Z,101601.30
2018-06-24T06:10:15.110Z,101598.81
2018-06-24T06:12:43.521Z,101604.42
2018-06-24T06:15:11.984Z,101604.01
2018-06-24T06:17:40.410Z,101607.84
2018-06-24T06:20:09.608Z,101605.71
2018-06-24T06:22:38.036Z,101603.13
2018-06-24T06:25:06.984Z,101604.02
2018-06-24T06:27:35.505Z,101608.77
2018-06-24T06:30:04.142Z,101602.30
2018-06-24T06:32:32.591Z,101602.83
2018-06-24T06:35:01.017Z,101602.42
2018-06-24T06:37:29.444Z,101601.62
2018-06-24T06:39:58.039Z,101605.19
2018-06-24T06:42:26.469Z,101614.67
2018-06-24T06:44:54.968Z,101618.98
2018-06-24T06:47:23.292Z,101611.29
2018-06-24T06:49:51.675Z,101613.03
2018-06-24T06:52:20.060Z,101614.32
2018-06-24T06:54:48.459Z,101614.34
2018-06-24T06:57:16.856Z,101611.36
2018-06-24T06:59:45.283Z,101618.32
2018-06-24T07:02:13.664Z,101608.40
2018-06-24T07:04:42.113Z,101611.44
2018-06-24T07:07:11.123Z,101617.91
2018-06-24T07:09:39.566Z,101620.47
2018-06-24T07:12:07.992Z,101613.59
2018-06-24T07:14:36.453Z,101622.63
2018-06-24T07:17:05.091Z,101621.67
2018-06-24T07:19:33.492Z,101627.67
2018-06-24T07:22:02.071Z,101632.38
2018-06-24T07:24:30.408Z,101632.81
2018-06-24T07:26:58.952Z,101628.97
2018-06-24T07:29:27.341Z,101628.13
2018-06-24T07:31:55.765Z,101625.98
2018-06-24T07:34:24.242Z,101639.30
2018-06-24T07:36:52.636Z,101631.61
2018-06-24T07:39:21.058Z,101638.50
2018-06-24T07:41:49.500Z,101638.09
2018-06-24T07:44:17.946Z,101638.13
2018-06-24T07:46:46.687Z,101637.75
2018-06-24T07:49:15.121Z,101636.91
2018-06-24T07:51:43.602Z,101646.41
2018-06-24T07:54:12.013Z,101648.51
2018-06-24T07:56:40.392Z,101647.20
2018-06-24T07:59:09.657Z,101647.98
2018-06-24T08:01:38.193Z,101649.27
2018-06-24T08:04:06.627Z,101656.60
2018-06-24T08:06:35.084Z,101646.34
2018-06-24T08:09:03.712Z,101647.66
2018-06-24T08:11:32.163Z,101636.94
2018-06-24T08:14:00.655Z,101633.16
2018-06-24T08:16:30.063Z,101632.77
2018-06-24T08:18:59.236Z,101637.46
2018-06-24T08:21:27.665Z,101630.56
2018-06-24T08:23:56.356Z,101634.09
2018-06-24T08:26:24.809Z,101629.79
2018-06-24T08:28:53.224Z,101630.70
2018-06-24T08:31:21.696Z,101633.73
2018-06-24T08:33:50.104Z,101636.36
2018-06-24T08:36:18.756Z,101634.67
2018-06-24T08:38:47.253Z,101635.92
2018-06-24T08:41:15.632Z,101635.06
2018-06-24T08:43:44.074Z,101632.53
2018-06-24T08:46:12.467Z,101637.27
2018-06-24T08:48:41.341Z,101641.14
2018-06-24T08:51:09.769Z,101638.56
2018-06-24T08:53:38.180Z,101653.67
2018-06-24T08:56:06.589Z,101642.44
2018-06-24T08:58:35.113Z,101645.50
2018-06-24T09:01:03.525Z,101653.72
2018-06-24T09:03:32.247Z,101650.70
2018-06-24T09:06:00.870Z,101640.80
2018-06-24T09:08:29.294Z,101650.28
2018-06-24T09:10:57.840Z,101645.11
2018-06-24T09:13:26.269Z,101657.17
2018-06-24T09:15:54.774Z,101650.66
2018-06-24T09:18:23.198Z,101649.80
2018-06-24T09:20:51.724Z,101646.35
2018-06-24T09:23:20.246Z,101646.37
2018-06-24T09:25:48.708Z,101646.40
2018-06-24T09:28:17.167Z,101645.97
2018-06-24T09:30:45.610Z,101650.70
2018-06-24T09:33:14.784Z,101652.78
2018-06-24T09:35:43.205Z,101661.00
2018-06-24T09:38:11.653Z,101651.53
2018-06-24T09:40:40.095Z,101643.35
2018-06-24T09:43:08.492Z,101647.69
2018-06-24T09:45:36.921Z,101640.33
2018-06-24T09:48:05.701Z,101645.07
2018-06-24T09:50:34.129Z,101640.77
2018-06-24T09:53:03.062Z,101636.92
2018-06-24T09:55:31.568Z,101646.44
2018-06-24T09:57:59.973Z,101640.80
2018-06-24T10:00:28.384Z,101642.95
2018-06-24T10:02:56.820Z,101640.83
2018-06-24T10:05:25.215Z,101643.84
2018-06-24T10:07:53.646Z,101637.81
2018-06-24T10:10:22.079Z,101636.52
2018-06-24T10:12:50.507Z,101647.31
2018-06-24T10:15:18.924Z,101635.25
2018-06-24T10:17:47.348Z,101636.53
2018-06-24T10:20:15.773Z,101641.69
2018-06-24T10:22:44.173Z,101642.56
2018-06-24T10:25:12.691Z,101636.09
2018-06-24T10:27:41.149Z,101631.77
2018-06-24T10:30:09.519Z,101631.80
2018-06-24T10:32:37.938Z,101631.34
2018-06-24T10:35:06.381Z,101633.53
2018-06-24T10:37:34.852Z,101633.52
2018-06-24T10:40:03.311Z,101637.39
2018-06-24T10:42:32.361Z,101639.59
2018-06-24T10:45:00.815Z,101632.67
2018-06-24T10:47:29.227Z,101637.41
2018-06-24T10:49:57.670Z,101632.22
2018-06-24T10:52:26.047Z,101624.42
2018-06-24T10:54:54.445Z,101626.16
2018-06-24T10:57:22.834Z,101621.38
2018-06-24T10:59:51.672Z,101615.34
2018-06-24T11:02:20.174Z,101623.50
2018-06-24T11:04:48.548Z,101630.44
2018-06-24T11:07:16.913Z,101619.23
2018-06-24T11:09:45.366Z,101624.41
2018-06-24T11:12:13.913Z,101617.11
2018-06-24T11:14:42.359Z,101628.27
2018-06-24T11:17:11.176Z,101629.95
2018-06-24T11:19:41.875Z,101634.25
2018-06-24T11:22:11.837Z,101621.27
2018-06-24T11:24:40.354Z,101623.00
2018-06-24T11:27:08.753Z,101616.00
2018-06-24T11:29:37.261Z,101616.00
2018-06-24T11:32:06.768Z,101611.62
2018-06-24T11:34:35.194Z,101616.42
2018-06-24T11:37:03.625Z,101609.08
2018-06-24T11:39:32.064Z,101615.98
2018-06-24T11:42:00.725Z,101611.25
2018-06-24T11:44:29.190Z,101609.89
2018-06-24T11:46:58.230Z,101616.80
2018-06-24T11:49:26.616Z,101615.09
2018-06-24T11:51:55.028Z,101616.77
2018-06-24T11:54:23.447Z,101612.84
2018-06-24T11:56:52.310Z,101609.02
2018-06-24T11:59:20.698Z,101615.08
2018-06-24T12:01:49.183Z,101613.36
2018-06-24T12:04:17.643Z,101616.01
2018-06-24T12:06:46.801Z,101616.39
2018-06-24T12:09:15.217Z,101616.29
2018-06-24T12:11:44.525Z,101614.62
2018-06-24T12:14:12.989Z,101606.42
2018-06-24T12:16:41.412Z,101602.89
2018-06-24T12:19:09.913Z,101612.81
2018-06-24T12:21:38.343Z,101611.09
2018-06-24T12:24:07.038Z,101607.50
2018-06-24T12:26:35.448Z,101601.42
2018-06-24T12:29:03.989Z,101616.25
2018-06-24T12:31:34.246Z,101605.41
2018-06-24T12:34:03.342Z,101599.22
2018-06-24T12:36:41.062Z,101602.77
2018-06-24T12:39:14.425Z,101590.17
2018-06-24T12:41:43.093Z,101590.61
2018-06-24T12:44:11.592Z,101587.42
2018-06-24T12:46:40.013Z,101589.73
2018-06-24T12:49:08.986Z,101590.68
2018-06-24T12:51:38.547Z,101589.84
2018-06-24T12:54:08.345Z,101586.37
2018-06-24T12:56:37.701Z,101588.12
2018-06-24T12:59:06.384Z,101589.81
2018-06-24T13:01:35.647Z,101591.64
2018-06-24T13:04:04.096Z,101596.71
2018-06-24T13:06:34.175Z,101600.25
2018-06-24T13:09:03.401Z,101589.39
2018-06-24T13:11:31.841Z,101588.07
2018-06-24T13:14:00.947Z,101587.30
2018-06-24T13:16:29.338Z,101591.63
2018-06-24T13:18:57.717Z,101580.38
2018-06-24T13:21:26.184Z,101586.33
2018-06-24T13:23:54.988Z,101576.51
2018-06-24T13:26:23.508Z,101583.85
2018-06-24T13:28:51.924Z,101583.89
2018-06-24T13:31:20.359Z,101577.36
2018-06-24T13:33:48.733Z,101569.89
2018-06-24T13:36:17.153Z,101583.76
2018-06-24T13:38:46.173Z,101570.34
2018-06-24T13:41:14.830Z,101582.43
2018-06-24T13:43:44.600Z,101585.98
2018-06-24T13:46:13.122Z,101575.66
2018-06-24T13:48:41.628Z,101579.95
2018-06-24T13:51:10.289Z,101585.53
2018-06-24T13:53:39.623Z,101596.80
2018-06-24T13:56:08.636Z,101586.56
2018-06-24T13:58:37.132Z,101593.93
2018-06-24T14:01:05.641Z,101590.49
2018-06-24T14:03:34.781Z,101583.98
2018-06-24T14:06:03.542Z,101591.27
2018-06-24T14:08:32.570Z,101589.92
2018-06-24T14:11:01.016Z,101590.78
2018-06-24T14:13:29.732Z,101582.63
2018-06-24T14:15:58.269Z,101584.77
2018-06-24T14:18:26.660Z,101575.67
2018-06-24T14:20:55.100Z,101575.20
2018-06-24T14:23:24.085Z,101576.45
2018-06-24T14:25:52.449Z,101578.20
2018-06-24T14:28:20.829Z,101578.68
2018-06-24T14:30:49.430Z,101585.73
2018-06-24T14:33:17.809Z,101582.72
2018-06-24T14:35:46.232Z,101585.76
2018-06-24T14:38:14.761Z,101577.22
2018-06-24T14:40:43.224Z,101583.24
2018-06-24T14:43:11.749Z,101577.18
2018-06-24T14:45:41.293Z,101584.91
2018-06-24T14:48:09.736Z,101581.91
2018-06-24T14:50:38.219Z,101584.04
2018-06-24T14:53:06.683Z,101594.83
2018-06-24T14:55:35.151Z,101595.36
2018-06-24T14:58:03.787Z,101587.61
2018-06-24T15:00:32.344Z,101537.64
2018-06-24T15:03:00.869Z,101583.69
2018-06-24T15:05:29.289Z,101586.73
2018-06-24T15:07:57.747Z,101579.84
2018-06-24T15:27:25.062Z,101578.64
2018-06-24T15:29:53.477Z,101578.64
2018-06-24T15:32:21.911Z,101581.23
2018-06-24T15:34:50.462Z,101576.05
2018-06-24T15:37:18.945Z,101573.48
2018-06-24T15:39:48.148Z,101572.55
2018-06-24T15:42:16.708Z,101572.94
2018-06-24T15:44:45.690Z,101572.03
2018-06-24T15:47:14.990Z,101565.45
2018-06-24T15:49:43.424Z,101569.75
2018-06-24T15:52:11.877Z,101554.63
2018-06-24T15:54:40.932Z,101561.12
2018-06-24T15:57:09.343Z,101556.05
2018-06-24T15:59:37.925Z,101557.80
2018-06-24T16:02:07.354Z,101562.58
2018-06-24T16:04:35.815Z,101559.56
2018-06-24T16:07:04.235Z,101569.54
2018-06-24T16:09:32.745Z,101570.06
2018-06-24T16:12:02.713Z,101583.89
2018-06-24T16:14:31.187Z,101574.00
2018-06-24T16:16:59.891Z,101563.22
2018-06-24T16:19:28.328Z,101569.66
2018-06-24T16:21:56.756Z,101573.96
2018-06-24T16:24:25.295Z,101577.81
2018-06-24T16:26:53.912Z,101573.55
2018-06-24T16:29:22.300Z,101570.97
2018-06-24T16:31:50.746Z,101574.83
2018-06-24T16:34:19.174Z,101573.11
2018-06-24T16:36:48.463Z,101570.06
2018-06-24T16:39:17.084Z,101565.27
2018-06-24T16:41:45.600Z,101567.90
2018-06-24T16:44:14.035Z,101570.06
2018-06-24T16:46:42.496Z,101567.95
2018-06-24T16:49:10.980Z,101562.77
2018-06-24T16:51:39.984Z,101557.16
2018-06-24T16:54:08.511Z,101556.33
2018-06-24T16:56:36.973Z,101559.75
2018-06-24T16:59:05.369Z,101563.64
2018-06-24T17:01:34.268Z,101562.33
2018-06-24T17:04:02.696Z,101557.60
2018-06-24T17:06:31.094Z,101560.62
2018-06-24T17:08:59.637Z,101559.33
2018-06-24T17:11:28.055Z,101553.73
2018-06-24T17:13:56.740Z,101556.75
2018-06-24T17:16:25.852Z,101551.58
2018-06-24T17:18:54.294Z,101561.52
2018-06-24T17:21:22.867Z,101561.06
2018-06-24T17:23:51.612Z,101565.34
2018-06-24T17:26:20.075Z,101565.78
2018-06-24T17:28:48.493Z,101561.06
2018-06-24T17:31:17.020Z,101570.12
2018-06-24T17:33:45.442Z,101559.77
2018-06-24T17:36:13.894Z,101566.66
2018-06-24T17:38:42.312Z,101561.06
2018-06-24T17:41:10.699Z,101553.73
2018-06-24T17:43:39.127Z,101561.88
2018-06-24T17:46:07.563Z,101562.38
2018-06-24T17:48:36.029Z,101561.06
2018-06-24T17:51:04.528Z,101562.82
2018-06-24T17:53:33.150Z,101558.48
2018-06-24T17:56:02.529Z,101555.04
2018-06-24T17:58:30.973Z,101557.65
2018-06-24T18:00:59.699Z,101556.33
2018-06-24T18:03:28.088Z,101552.89
2018-06-24T18:05:56.568Z,101555.50
2018-06-24T18:08:25.001Z,101553.75
2018-06-24T18:10:53.508Z,101549.44
2018-06-24T18:13:21.940Z,101549.45
2018-06-24T18:15:50.485Z,101545.59
2018-06-24T18:18:19.037Z,101550.76
2018-06-24T18:20:47.502Z,101546.45
2018-06-24T18:23:15.992Z,101550.75
2018-06-24T18:25:44.381Z,101544.72
2018-06-24T18:28:13.551Z,101546.44
2018-06-24T18:30:42.893Z,101544.73
2018-06-24T18:33:11.486Z,101542.13
2018-06-24T18:35:39.848Z,101531.80
2018-06-24T18:38:08.293Z,101534.38
2018-06-24T18:40:37.745Z,101534.38
2018-06-24T18:43:06.683Z,101534.80
2018-06-24T18:45:35.117Z,101539.11
2018-06-24T18:48:03.578Z,101542.11
2018-06-24T18:50:32.052Z,101536.52
2018-06-24T18:53:00.499Z,101535.64
2018-06-24T18:55:29.339Z,101526.59
2018-06-24T18:57:57.823Z,101535.64
2018-06-24T19:00:26.254Z,101532.64
2018-06-24T19:02:54.816Z,101533.05
2018-06-24T19:05:24.040Z,101536.08
2018-06-24T19:07:52.568Z,101528.32
2018-06-24T19:10:21.157Z,101528.75
2018-06-24T19:12:49.637Z,101527.89
2018-06-24T19:15:18.088Z,101525.74
2018-06-24T19:17:46.517Z,101530.91
2018-06-24T19:20:14.974Z,101537.84
2018-06-24T19:22:43.348Z,101533.52
2018-06-24T19:25:11.802Z,101528.34
2018-06-24T19:27:40.214Z,101533.49
2018-06-24T19:30:08.662Z,101537.80
2018-06-24T19:32:37.667Z,101537.82
2018-06-24T19:35:06.126Z,101533.09
2018-06-24T19:37:34.541Z,101541.28
2018-06-24T19:40:03.916Z,101553.76
2018-06-24T19:42:32.357Z,101557.21
2018-06-24T19:45:00.793Z,101559.78
2018-06-24T19:47:29.672Z,101556.77
2018-06-24T19:49:58.132Z,101559.36
2018-06-24T19:52:27.526Z,101570.55
2018-06-24T19:54:56.831Z,101571.42
2018-06-24T19:57:25.804Z,101567.54
2018-06-24T19:59:54.224Z,101570.98
2018-06-24T20:02:22.833Z,101545.12
2018-06-24T20:04:51.243Z,101576.16
2018-06-24T20:07:19.951Z,101542.03
2018-06-24T20:09:48.469Z,101580.00
2018-06-24T20:12:18.668Z,101580.86
2018-06-24T20:14:47.681Z,101581.28
2018-06-24T20:17:16.702Z,101594.67
2018-06-24T20:19:45.138Z,101596.79
2018-06-24T20:22:13.660Z,101595.92
2018-06-24T20:24:42.160Z,101590.33
2018-06-24T20:27:11.054Z,101592.84
2018-06-24T20:29:39.713Z,101604.45
2018-06-24T20:32:08.229Z,101601.44
2018-06-24T20:34:37.057Z,101595.83
2018-06-24T20:37:05.584Z,101602.29
2018-06-24T20:39:33.977Z,101605.31
2018-06-24T20:42:02.430Z,101604.02
2018-06-24T20:44:30.813Z,101602.73
2018-06-24T20:46:59.392Z,101604.03
2018-06-24T20:49:27.817Z,101591.54
2018-06-24T20:51:56.470Z,101598.86
2018-06-24T20:54:24.882Z,101601.00
2018-06-24T20:56:53.293Z,101602.73
2018-06-24T20:59:21.774Z,101601.44
2018-06-24T21:01:50.295Z,101596.27
2018-06-24T21:04:18.833Z,101592.41
2018-06-24T21:06:47.400Z,101596.28
2018-06-24T21:09:16.775Z,101599.29
2018-06-24T21:11:45.242Z,101606.61
2018-06-24T21:14:13.922Z,101603.59
2018-06-24T21:16:43.033Z,101602.29
2018-06-24T21:19:11.444Z,101607.42
2018-06-24T21:21:40.653Z,101611.72
2018-06-24T21:24:09.633Z,101607.41
2018-06-24T21:26:38.072Z,101615.12
2018-06-24T21:29:06.586Z,101613.41
2018-06-24T21:31:35.034Z,101606.90
2018-06-24T21:34:04.068Z,101620.23
2018-06-24T21:36:32.488Z,101617.63
2018-06-24T21:39:00.934Z,101615.44
2018-06-24T21:41:29.361Z,101615.44
2018-06-24T21:43:57.787Z,101609.90
2018-06-24T21:46:26.237Z,101607.23
2018-06-24T21:48:54.731Z,101610.25
2018-06-24T21:51:23.409Z,101605.92
2018-06-24T21:53:52.679Z,101600.35
2018-06-24T21:56:21.158Z,101597.78
2018-06-24T21:58:50.510Z,101598.22
2018-06-24T22:01:18.907Z,101605.53
2018-06-24T22:03:47.321Z,101604.23
2018-06-24T22:06:15.984Z,101605.11
2018-06-24T22:08:44.388Z,101601.63
2018-06-24T22:11:12.783Z,101601.56
2018-06-24T22:13:41.230Z,101602.05
2018-06-24T22:16:09.743Z,101602.05
2018-06-24T22:18:38.187Z,101606.70
2018-06-24T22:21:07.448Z,101610.58
2018-06-24T22:23:35.877Z,101607.13
2018-06-24T22:26:04.357Z,101611.42
2018-06-24T22:28:32.835Z,101611.87
2018-06-24T22:31:02.006Z,101608.88
2018-06-24T22:33:30.820Z,101608.00
2018-06-24T22:35:59.279Z,101608.44
2018-06-24T22:38:27.719Z,101607.55
2018-06-24T22:40:56.764Z,101606.63
2018-06-24T22:43:25.322Z,101607.47
2018-06-24T22:45:53.753Z,101606.61
2018-06-24T22:48:22.836Z,101610.48
2018-06-24T22:50:51.364Z,101611.77
2018-06-24T22:53:19.932Z,101608.77
2018-06-24T22:55:48.376Z,101617.75
2018-06-24T22:58:16.751Z,101612.95
2018-06-24T23:00:45.150Z,101616.80
2018-06-24T23:03:13.562Z,101617.23
2018-06-24T23:05:41.960Z,101612.05
2018-06-24T23:08:10.361Z,101619.34
2018-06-24T23:10:38.785Z,101615.41
2018-06-24T23:13:07.293Z,101610.33
2018-06-24T23:15:36.143Z,101614.64
2018-06-24T23:18:04.772Z,101616.76
2018-06-24T23:20:33.177Z,101618.52
2018-06-24T23:23:01.536Z,101612.52
2018-06-24T23:25:29.942Z,101589.25
2018-06-24T23:27:58.323Z,101609.09
2018-06-24T23:30:26.763Z,101601.33
2018-06-24T23:32:55.153Z,101597.00
2018-06-24T23:35:24.880Z,101582.69
2018-06-24T23:37:53.824Z,101603.00
2018-06-24T23:40:22.193Z,101605.16
2018-06-24T23:42:51.679Z,101599.56
2018-06-24T23:45:20.327Z,101590.09
2018-06-24T23:47:48.823Z,101592.69
2018-06-24T23:50:17.220Z,101594.42
2018-06-24T23:52:45.637Z,101589.69
2018-06-24T23:55:14.639Z,101590.97
2018-06-24T23:57:43.033Z,101579.39
